This is the latest recevied weather packets stored in our database for station/object W2BP-13. If no packets are shown the sender has not sent any weather packets the latest 10 day(s).
| Time | Temp. | Humidity | Pressure | Rain* | Wind** | Luminosity | Snow |
|---|---|---|---|---|---|---|---|
| 1778172033 | 20° C | 44% | 1020.5 hPa | 0 mm | - | - | - |
| 1778171133 | 18.89° C | 47% | 1020.5 hPa | 0 mm | - | - | - |
| 1778170233 | 18.33° C | 49% | 1020.5 hPa | 0 mm | - | - | - |
| 1778169333 | 17.78° C | 51% | 1020.5 hPa | 0 mm | - | - | - |
| 1778168433 | 17.22° C | 52% | 1020.4 hPa | 0 mm | - | - | - |
| 1778166633 | 16.67° C | 57% | 1020.5 hPa | 0 mm | - | - | - |
| 1778165732 | 16.11° C | 60% | 1020.4 hPa | 0 mm | - | - | - |
| 1778164832 | 15° C | 64% | 1020.4 hPa | 0 mm | - | - | - |
| 1778163938 | 14.44° C | 67% | 1020 hPa | 0 mm | - | - | - |
| 1778163032 | 14.44° C | 70% | 1020.1 hPa | 0 mm | - | - | - |
| 1778162133 | 13.89° C | 71% | 1020.2 hPa | 0 mm | - | - | - |
| 1778161233 | 12.78° C | 73% | 1019.8 hPa | 0 mm | - | - | - |
| 1778160333 | 12.22° C | 75% | 1019.5 hPa | 0 mm | - | - | - |
| 1778159433 | 12.22° C | 77% | 1019.3 hPa | 0 mm | - | - | - |
| 1778158533 | 11.67° C | 77% | 1019.3 hPa | 0 mm | - | - | - |
| 1778157633 | 11.67° C | 78% | 1019.3 hPa | 0 mm | - | - | - |
| 1778156733 | 12.22° C | 77% | 1019.5 hPa | 0 mm | - | - | - |
| 1778155833 | 12.22° C | 75% | 1019.3 hPa | 0 mm | - | - | - |
| 1778154932 | 12.78° C | 74% | 1019.2 hPa | 0 mm | - | - | - |
| 1778154033 | 12.78° C | 75% | 1019.3 hPa | 0 mm | - | - | - |
| 1778153133 | 12.78° C | 75% | 1019.1 hPa | 0 mm | - | - | - |
| 1778152233 | 12.78° C | 75% | 1019.1 hPa | 0 mm | - | - | - |
| 1778151332 | 12.78° C | 75% | 1018.9 hPa | 0 mm | - | - | - |
| 1778150433 | 12.78° C | 75% | 1018.8 hPa | 0 mm | - | - | - |
| 1778149533 | 13.33° C | 74% | 1018.8 hPa | 0 mm | - | - | - |
* Rain latest hour (hover to see other rain measurements)
** Current wind speed in m/s (hover to see current wind gust speed)